Weather

Clear
Thursday 02/22 0%
Clear
Mainly clear. Lows overnight in the low 20s.
Clear
Friday 02/23 0%
Clear
Mainly sunny. High 52F. NE winds shifting to SSW at 15 to 25 mph. Winds could occasionally gust over 40 mph.
Clear
Saturday 02/24 0%
Clear
A mainly sunny sky. High 43F. Winds NW at 15 to 25 mph. Winds could occasionally gust over 40 mph.
Partly Cloudy
Sunday 02/25 0%
Partly Cloudy
Some clouds in the morning will give way to mainly sunny skies for the afternoon. High 42F. Winds NW at 15 to 25 mph. Winds could occasionally gust over 40 mph.
Clear
Monday 02/26 0%
Clear
Sunny. High 52F. Winds SE at 5 to 10 mph.

 

 

For a detailed forecast click the banner below.

ballooncastlogo

 

 

Available data for KABQ from the past 2 hours
ALBUQUERQUE, NM
Metar
KABQ 230352Z 21003KT 10SM CLR 04/M09 A3006 RMK AO2 SLP179 T00391094

03:52 UTC

Wind: 210° 3kt

Visibility: 10 SM

Sky:

Temp: 4 deg C / 39.2 deg F

Dewpoint: -9 deg C / 15.8 deg F

Pressure: 30.06 inHg

TAF
KABQ 222333Z 2300/2324 25011KT P6SM FEW070 FM230300 30005KT P6SM SKC FM231800 20010KT P6SM SCT090